Terminal Aerodrome Forecast
Issued by NWS

Home | Current Version | Previous Version | Text Only | Print | Product List | Glossary On
Versions: 1 2 3 4 5 6 7 8 9 10 11 12 13 14 15 16 17 18
438
FTUS45 KTFX 132338
TAFBZN
TAF
KBZN 132338Z 1400/1424 29010KT P6SM SCT070
     FM140800 21006KT P6SM VCSH SCT050 OVC070
     FM141400 24011KT P6SM -SHRA SCT030 OVC050 WS020/27025KT=

USA.gov is the U.S. government's official web portal to all federal, state and local government web resources and services.